Time;durP1;ratioP1;P1;durP2;ratioP2;P2;SDS_P1;SDS_P2;PMS_P1;PMS_P2;Temp;Humidity;BMP_temperature;BMP_pressure;BME280_temperature;BME280_humidity;BME280_pressure;Samples;Min_cycle;Max_cycle;Signal;HPM_P1;HPM_P2
2022/04/28 00:00:09;;;;;;;1999.90;999.90;;;8.60;99.90;;;;;;5077459;28;20505;-66
2022/04/28 00:02:36;;;;;;;1999.90;999.90;;;8.60;99.90;;;;;;5079355;28;20526;-68
2022/04/28 00:05:04;;;;;;;1999.90;999.90;;;8.50;99.90;;;;;;5077885;28;20946;-68
2022/04/28 00:07:31;;;;;;;1999.90;999.90;;;8.50;99.90;;;;;;5085580;28;20468;-67
2022/04/28 00:09:58;;;;;;;1999.90;999.90;;;8.60;99.90;;;;;;5096405;28;20463;-68
2022/04/28 00:12:26;;;;;;;1999.90;999.90;;;8.60;99.90;;;;;;5097754;28;20448;-67
2022/04/28 00:14:52;;;;;;;1999.90;999.90;;;8.60;99.90;;;;;;5097697;28;20468;-67
2022/04/28 00:17:19;;;;;;;1999.90;999.90;;;8.60;99.90;;;;;;5098159;28;21009;-69
2022/04/28 00:19:46;;;;;;;1999.90;999.90;;;8.50;99.90;;;;;;5099020;28;20475;-67
2022/04/28 00:22:13;;;;;;;1999.90;999.90;;;8.50;99.90;;;;;;5098365;28;20468;-66
2022/04/28 00:24:40;;;;;;;1999.90;999.90;;;8.50;99.90;;;;;;5098638;28;20460;-66
2022/04/28 00:27:06;;;;;;;1999.90;999.90;;;8.50;99.90;;;;;;5096600;28;21007;-67
2022/04/28 00:29:35;;;;;;;1999.90;999.90;;;8.40;99.90;;;;;;5096058;28;20460;-68
2022/04/28 00:32:02;;;;;;;1999.90;999.90;;;8.30;99.90;;;;;;5098668;28;20471;-67
2022/04/28 00:34:29;;;;;;;1999.90;999.90;;;8.20;99.90;;;;;;5097819;28;20490;-68
2022/04/28 00:36:55;;;;;;;1999.90;999.90;;;8.10;99.90;;;;;;5097165;28;20441;-67
2022/04/28 00:39:22;;;;;;;1999.90;999.90;;;8.20;99.90;;;;;;5097582;28;20545;-67
2022/04/28 00:41:48;;;;;;;1999.90;999.90;;;8.20;99.90;;;;;;5098317;28;20479;-68
2022/04/28 00:44:16;;;;;;;1999.90;999.90;;;8.30;99.90;;;;;;5096936;28;20460;-65
2022/04/28 00:46:44;;;;;;;1999.90;999.90;;;8.30;99.90;;;;;;5097870;28;20443;-67
2022/04/28 00:51:56;;;;;;;1999.90;999.90;;;8.20;99.90;;;;;;5096226;28;20427;-67
2022/04/28 00:54:23;;;;;;;1999.90;999.90;;;8.20;99.90;;;;;;5097723;28;20464;-67
2022/04/28 00:56:50;;;;;;;1999.90;999.90;;;8.30;99.90;;;;;;5096777;28;20453;-67
2022/04/28 00:59:19;;;;;;;1999.90;999.90;;;8.20;99.90;;;;;;5114692;28;20494;-68
2022/04/28 01:01:47;;;;;;;1999.90;999.90;;;8.20;99.90;;;;;;5115675;28;20463;-69
2022/04/28 01:04:13;;;;;;;1999.90;999.90;;;8.20;99.90;;;;;;5116458;28;20484;-69
2022/04/28 01:06:42;;;;;;;1999.90;999.90;;;8.20;99.90;;;;;;5115491;28;20493;-67
2022/04/28 01:09:08;;;;;;;1999.90;999.90;;;8.20;99.90;;;;;;5113145;28;20484;-68
2022/04/28 01:11:36;;;;;;;1999.90;999.90;;;8.20;99.90;;;;;;5111963;28;20482;-67
2022/04/28 01:14:03;;;;;;;1999.90;999.90;;;8.20;99.90;;;;;;5097399;28;20465;-68
2022/04/28 01:16:29;;;;;;;1999.90;999.90;;;8.10;99.90;;;;;;5096964;28;20463;-68
2022/04/28 01:18:58;;;;;;;1999.90;999.90;;;8.20;99.90;;;;;;5096410;28;20484;-67
2022/04/28 01:21:26;;;;;;;1999.90;999.90;;;8.30;99.90;;;;;;5095530;28;20445;-68
2022/04/28 01:23:55;;;;;;;1999.90;999.90;;;8.30;99.90;;;;;;5096742;28;20436;-68
2022/04/28 01:26:22;;;;;;;1999.90;999.90;;;8.30;99.90;;;;;;5095725;28;21270;-67
2022/04/28 01:28:49;;;;;;;1999.90;999.90;;;8.40;99.90;;;;;;5095806;28;20562;-67
2022/04/28 01:31:16;;;;;;;1999.90;999.90;;;8.50;99.90;;;;;;5096896;28;20564;-67
2022/04/28 01:33:42;;;;;;;1999.90;999.90;;;8.40;99.90;;;;;;5097047;28;20488;-67
2022/04/28 01:36:09;;;;;;;1999.90;999.90;;;8.30;99.90;;;;;;5096245;28;20500;-68
2022/04/28 01:38:37;;;;;;;1999.90;999.90;;;8.30;99.90;;;;;;5094332;28;20478;-68
2022/04/28 01:41:04;;;;;;;1999.90;999.90;;;8.30;99.90;;;;;;5099220;28;20498;-66
2022/04/28 01:43:31;;;;;;;1999.90;999.90;;;8.30;99.90;;;;;;5099020;28;20480;-69
2022/04/28 01:45:57;;;;;;;1999.90;999.90;;;8.30;99.90;;;;;;5100407;28;20448;-66
2022/04/28 01:48:24;;;;;;;1999.90;999.90;;;8.30;99.90;;;;;;5100578;28;20479;-67
2022/04/28 01:56:17;;;;;;;1999.90;999.90;;;8.20;99.90;;;;;;5099660;28;20423;-65
2022/04/28 01:58:43;;;;;;;1999.90;999.90;;;8.20;99.90;;;;;;5098998;28;20539;-66
2022/04/28 02:01:10;;;;;;;1999.90;999.90;;;8.10;99.90;;;;;;5100856;28;20435;-68
2022/04/28 02:03:37;;;;;;;1999.90;999.90;;;8.10;99.90;;;;;;5100021;28;21011;-67
2022/04/28 02:06:03;;;;;;;1999.90;999.90;;;8.20;99.90;;;;;;5100323;28;20501;-67
2022/04/28 02:08:30;;;;;;;1999.90;999.90;;;8.20;99.90;;;;;;5098126;28;20479;-65
2022/04/28 02:10:57;;;;;;;1999.90;999.90;;;8.10;99.90;;;;;;5100084;28;20440;-68
2022/04/28 02:13:25;;;;;;;1999.90;999.90;;;8.10;99.90;;;;;;5110203;28;20566;-69
2022/04/28 02:15:51;;;;;;;1999.90;999.90;;;8.10;99.90;;;;;;5118915;28;20459;-67
2022/04/28 02:18:18;;;;;;;1999.90;999.90;;;7.90;99.90;;;;;;5121690;28;20460;-69
2022/04/28 02:20:45;;;;;;;1999.90;999.90;;;7.90;99.90;;;;;;5117441;28;20488;-67
2022/04/28 02:23:12;;;;;;;1999.90;999.90;;;7.90;99.90;;;;;;5115362;28;20471;-68
2022/04/28 02:25:38;;;;;;;1999.90;999.90;;;7.90;99.90;;;;;;5115244;28;21090;-69
2022/04/28 02:28:05;;;;;;;1999.90;999.90;;;7.90;99.90;;;;;;5114553;28;20483;-67
2022/04/28 02:30:33;;;;;;;1999.90;999.90;;;7.90;99.90;;;;;;5101920;28;20852;-65
2022/04/28 02:33:12;;;;;;;1999.90;999.90;;;7.90;99.90;;;;;;5102313;28;20490;-64
2022/04/28 02:35:39;;;;;;;1999.90;999.90;;;7.80;99.90;;;;;;5097989;28;20456;-64
2022/04/28 02:38:06;;;;;;;1999.90;999.90;;;7.70;99.90;;;;;;5097634;28;20891;-65
2022/04/28 02:40:34;;;;;;;1999.90;999.90;;;7.70;99.90;;;;;;5098447;28;20455;-65
2022/04/28 02:43:00;;;;;;;1999.90;999.90;;;7.70;99.90;;;;;;5098643;28;20993;-64
2022/04/28 02:45:27;;;;;;;1999.90;999.90;;;7.70;99.90;;;;;;5098322;28;20521;-66
2022/04/28 02:47:55;;;;;;;1999.90;999.90;;;7.70;99.90;;;;;;5100718;28;20519;-65
2022/04/28 02:50:22;;;;;;;1999.90;999.90;;;7.60;99.90;;;;;;5099051;28;20441;-64
2022/04/28 02:52:50;;;;;;;1999.90;999.90;;;7.60;99.90;;;;;;5098961;28;21145;-65
2022/04/28 02:55:17;;;;;;;1999.90;999.90;;;7.70;99.90;;;;;;5099876;28;20509;-63
2022/04/28 02:57:43;;;;;;;1999.90;999.90;;;7.70;99.90;;;;;;5099900;28;20472;-64
2022/04/28 03:00:11;;;;;;;1999.90;999.90;;;7.70;99.90;;;;;;5098061;28;20549;-65
2022/04/28 03:02:37;;;;;;;1999.90;999.90;;;7.70;99.90;;;;;;5099244;28;20469;-64
2022/04/28 03:05:07;;;;;;;1999.90;999.90;;;7.80;99.90;;;;;;5098806;28;20468;-65
2022/04/28 03:13:14;;;;;;;1999.90;999.90;;;7.70;99.90;;;;;;5100498;28;20872;-64
2022/04/28 03:15:40;;;;;;;1999.90;999.90;;;7.60;99.90;;;;;;5087497;28;20445;-65
2022/04/28 03:18:07;;;;;;;1999.90;999.90;;;7.60;99.90;;;;;;5088401;28;21016;-64
2022/04/28 03:20:35;;;;;;;1999.90;999.90;;;7.60;99.90;;;;;;5087557;28;20503;-65
2022/04/28 03:23:02;;;;;;;1999.90;999.90;;;7.60;99.90;;;;;;5099481;28;20513;-65
2022/04/28 03:25:28;;;;;;;1999.90;999.90;;;7.60;99.90;;;;;;5097902;28;20448;-65
2022/04/28 03:27:56;;;;;;;1999.90;999.90;;;7.60;99.90;;;;;;5098019;28;20479;-64
2022/04/28 03:30:23;;;;;;;1999.90;999.90;;;7.60;99.90;;;;;;5098280;28;20787;-65
2022/04/28 03:32:49;;;;;;;1999.90;999.90;;;7.60;99.90;;;;;;5098649;28;20460;-65
2022/04/28 03:35:16;;;;;;;1999.90;999.90;;;7.60;99.90;;;;;;5095960;28;20460;-66
2022/04/28 03:37:47;;;;;;;1999.90;999.90;;;7.60;99.90;;;;;;5098184;28;20467;-64
2022/04/28 03:40:13;;;;;;;1999.90;999.90;;;7.60;99.90;;;;;;5096899;28;21015;-65
2022/04/28 03:42:40;;;;;;;1999.90;999.90;;;7.70;99.90;;;;;;5096495;28;20483;-63
2022/04/28 03:45:08;;;;;;;1999.90;999.90;;;7.70;99.90;;;;;;5097183;28;20932;-66
2022/04/28 03:47:36;;;;;;;1999.90;999.90;;;7.70;99.90;;;;;;5099389;28;20508;-65
2022/04/28 03:50:03;;;;;;;1999.90;999.90;;;7.70;99.90;;;;;;5098228;28;20463;-65
2022/04/28 03:52:30;;;;;;;1999.90;999.90;;;7.80;99.90;;;;;;5097930;27;20532;-66
2022/04/28 03:54:58;;;;;;;1999.90;999.90;;;7.80;99.90;;;;;;5097271;28;20444;-65
2022/04/28 03:57:25;;;;;;;1999.90;999.90;;;7.80;99.90;;;;;;5096562;28;20492;-67
2022/04/28 03:59:51;;;;;;;1999.90;999.90;;;7.80;99.90;;;;;;5098210;28;21021;-67
2022/04/28 04:02:18;;;;;;;1999.90;999.90;;;7.90;99.90;;;;;;5097071;28;21015;-66
2022/04/28 04:04:45;;;;;;;1999.90;999.90;;;7.90;99.90;;;;;;5099470;28;20451;-68
2022/04/28 04:07:11;;;;;;;1999.90;999.90;;;7.70;99.90;;;;;;5096467;28;20548;-68
2022/04/28 04:09:38;;;;;;;1999.90;999.90;;;7.70;99.90;;;;;;5098451;28;20490;-68
2022/04/28 04:12:07;;;;;;;1999.90;999.90;;;7.60;99.90;;;;;;5097512;28;20462;-66
2022/04/28 04:14:34;;;;;;;1999.90;999.90;;;7.70;99.90;;;;;;5099849;28;20459;-64
2022/04/28 04:17:00;;;;;;;1999.90;999.90;;;7.60;99.90;;;;;;5099407;28;20882;-65
2022/04/28 04:19:27;;;;;;;1999.90;999.90;;;7.70;99.90;;;;;;5099547;28;20451;-65
2022/04/28 04:21:54;;;;;;;1999.90;999.90;;;7.60;99.90;;;;;;5097306;28;20894;-66
2022/04/28 04:24:20;;;;;;;1999.90;999.90;;;7.60;99.90;;;;;;5096610;28;20476;-66
2022/04/28 04:26:47;;;;;;;1999.90;999.90;;;7.60;99.90;;;;;;5099853;28;20471;-65
2022/04/28 04:29:15;;;;;;;1999.90;999.90;;;7.70;99.90;;;;;;5099747;28;20502;-64
2022/04/28 04:34:26;;;;;;;1999.90;999.90;;;7.80;99.90;;;;;;5099160;28;20490;-65
2022/04/28 04:36:53;;;;;;;1999.90;999.90;;;7.70;99.90;;;;;;5098071;28;20464;-66
2022/04/28 04:39:19;;;;;;;1999.90;999.90;;;7.70;99.90;;;;;;5099581;28;20452;-65
2022/04/28 04:41:46;;;;;;;1999.90;999.90;;;7.90;99.90;;;;;;5097898;28;22188;-65
2022/04/28 04:44:14;;;;;;;1999.90;999.90;;;7.90;99.90;;;;;;5097722;27;20529;-64
2022/04/28 04:46:42;;;;;;;1999.90;999.90;;;7.90;99.90;;;;;;5097528;28;20532;-66
2022/04/28 04:49:09;;;;;;;1999.90;999.90;;;8.10;99.90;;;;;;5098258;28;20953;-68
2022/04/28 04:51:36;;;;;;;1999.90;999.90;;;8.20;99.90;;;;;;5097465;28;20463;-67
2022/04/28 04:54:02;;;;;;;1999.90;999.90;;;8.10;99.90;;;;;;5097991;28;20441;-68
2022/04/28 04:56:29;;;;;;;1999.90;999.90;;;8.20;99.90;;;;;;5098293;28;20944;-67
2022/04/28 04:58:56;;;;;;;1999.90;999.90;;;8.20;99.90;;;;;;5098001;28;20476;-68
2022/04/28 05:01:22;;;;;;;1999.90;999.90;;;8.20;99.90;;;;;;5092713;28;20513;-64
2022/04/28 05:03:50;;;;;;;1999.90;999.90;;;8.10;99.90;;;;;;5097600;28;20997;-65
2022/04/28 05:06:17;;;;;;;1999.90;999.90;;;8.10;99.90;;;;;;5095577;28;20490;-66
2022/04/28 05:08:43;;;;;;;1999.90;999.90;;;8.10;99.90;;;;;;5099236;28;20516;-63
2022/04/28 05:11:10;;;;;;;1999.90;999.90;;;8.00;99.90;;;;;;5097822;28;20461;-65
2022/04/28 05:13:37;;;;;;;1999.90;999.90;;;8.20;99.90;;;;;;5098395;28;20441;-65
2022/04/28 05:16:04;;;;;;;1999.90;999.90;;;8.40;99.90;;;;;;5098532;28;20461;-68
2022/04/28 05:18:31;;;;;;;1999.90;999.90;;;8.40;99.90;;;;;;5099214;28;20464;-68
2022/04/28 05:20:59;;;;;;;1999.90;999.90;;;8.60;99.90;;;;;;5097362;28;20522;-68
2022/04/28 05:23:26;;;;;;;1999.90;999.90;;;8.60;99.90;;;;;;5096954;28;20475;-66
2022/04/28 05:25:52;;;;;;;1999.90;999.90;;;8.80;99.90;;;;;;5099221;28;20444;-64
2022/04/28 05:28:19;;;;;;;1999.90;999.90;;;8.90;99.90;;;;;;5098760;28;20521;-64
2022/04/28 05:30:46;;;;;;;1999.90;999.90;;;9.00;99.90;;;;;;5099434;28;20436;-68
2022/04/28 05:33:13;;;;;;;1999.90;999.90;;;9.10;99.90;;;;;;5096970;28;20948;-68
2022/04/28 05:35:42;;;;;;;1999.90;999.90;;;9.20;99.90;;;;;;5099113;28;20952;-68
2022/04/28 05:38:11;;;;;;;1999.90;999.90;;;9.40;99.90;;;;;;5098480;28;20483;-68
2022/04/28 05:40:39;;;;;;;1999.90;999.90;;;9.70;99.90;;;;;;5098412;28;20489;-68
2022/04/28 05:45:51;;;;;;;1999.90;999.90;;;9.70;99.90;;;;;;5098611;28;20466;-68
2022/04/28 05:48:19;;;;;;;1999.90;999.90;;;9.80;99.90;;;;;;5097440;28;20540;-68
2022/04/28 05:50:47;;;;;;;1999.90;999.90;;;9.80;99.90;;;;;;5099254;28;20448;-68
2022/04/28 05:53:15;;;;;;;1999.90;999.90;;;9.80;99.90;;;;;;5098031;28;20966;-68
2022/04/28 05:55:42;;;;;;;1999.90;999.90;;;9.90;99.90;;;;;;5096293;28;20464;-68
2022/04/28 05:58:09;;;;;;;1999.90;999.90;;;9.80;99.90;;;;;;5095809;28;20501;-68
2022/04/28 06:00:36;;;;;;;1999.90;999.90;;;9.70;99.90;;;;;;5096212;28;20520;-67
2022/04/28 06:03:03;;;;;;;1999.90;999.90;;;9.80;99.90;;;;;;5097277;28;20463;-68
2022/04/28 06:05:29;;;;;;;1999.90;999.90;;;9.80;99.90;;;;;;5102365;23;20493;-69
2022/04/28 06:07:56;;;;;;;1999.90;999.90;;;9.80;99.90;;;;;;5047959;28;20454;-67
2022/04/28 06:10:24;;;;;;;1999.90;999.90;;;10.10;99.90;;;;;;5047496;28;20508;-67
2022/04/28 06:12:51;;;;;;;1999.90;999.90;;;10.20;99.90;;;;;;5047952;28;20451;-68
2022/04/28 06:15:18;;;;;;;1999.90;999.90;;;10.20;99.90;;;;;;5047701;28;20481;-69
2022/04/28 06:17:44;;;;;;;1999.90;999.90;;;10.20;99.90;;;;;;5051207;28;20504;-67
2022/04/28 06:20:12;;;;;;;1999.90;999.90;;;10.10;99.90;;;;;;5051455;28;20866;-69
2022/04/28 06:22:39;;;;;;;1999.90;999.90;;;10.10;99.90;;;;;;5047931;28;20450;-70
2022/04/28 06:25:06;;;;;;;1999.90;999.90;;;9.90;99.90;;;;;;5051206;28;20485;-69
2022/04/28 06:27:35;;;;;;;1999.90;999.90;;;9.60;99.90;;;;;;5054413;28;20442;-69
2022/04/28 06:30:03;;;;;;;1999.90;999.90;;;9.60;99.90;;;;;;5054940;28;20458;-69
2022/04/28 06:32:29;;;;;;;1999.90;999.90;;;9.80;99.90;;;;;;5054558;28;20450;-69
2022/04/28 06:34:56;;;;;;;1999.90;999.90;;;9.90;99.90;;;;;;5054825;28;20492;-70
2022/04/28 06:37:24;;;;;;;1999.90;999.90;;;10.00;99.90;;;;;;5054431;28;20458;-70
2022/04/28 06:39:50;;;;;;;1999.90;999.90;;;10.20;99.90;;;;;;5054383;28;20454;-69
2022/04/28 06:42:17;;;;;;;1999.90;999.90;;;10.40;99.90;;;;;;5053655;28;20458;-70
2022/04/28 06:44:45;;;;;;;1999.90;999.90;;;10.40;99.90;;;;;;5052351;28;20600;-70
2022/04/28 06:47:12;;;;;;;1999.90;999.90;;;10.70;99.90;;;;;;5047856;28;20548;-71
2022/04/28 06:49:39;;;;;;;1999.90;999.90;;;10.90;99.90;;;;;;5058852;28;20462;-70
2022/04/28 06:52:06;;;;;;;1999.90;999.90;;;11.20;99.90;;;;;;5063598;28;20446;-68
2022/04/28 06:54:33;;;;;;;1999.90;999.90;;;11.30;99.90;;;;;;5056283;28;20530;-70
2022/04/28 06:56:59;;;;;;;1999.90;999.90;;;11.40;99.90;;;;;;5063345;28;21003;-69
2022/04/28 06:59:26;;;;;;;1999.90;999.90;;;11.30;99.90;;;;;;5054460;28;20511;-70
2022/04/28 07:01:54;;;;;;;1999.90;999.90;;;11.20;99.90;;;;;;5055687;28;20459;-70
2022/04/28 07:04:21;;;;;;;1999.90;999.90;;;11.10;99.90;;;;;;5050310;28;20869;-71
2022/04/28 07:06:48;;;;;;;1999.90;999.90;;;11.40;99.90;;;;;;5051181;28;20489;-70
2022/04/28 07:09:14;;;;;;;1999.90;999.90;;;11.80;99.90;;;;;;5063352;28;20504;-69
2022/04/28 07:11:41;;;;;;;1999.90;999.90;;;11.80;99.90;;;;;;5050143;28;20467;-69
2022/04/28 07:14:08;;;;;;;1999.90;999.90;;;11.80;99.90;;;;;;5061463;28;20502;-69
2022/04/28 07:16:34;;;;;;;1999.90;999.90;;;11.90;99.90;;;;;;5054539;28;20482;-71
2022/04/28 07:19:03;;;;;;;1999.90;999.90;;;11.80;99.90;;;;;;5053084;28;20466;-70
2022/04/28 07:21:30;;;;;;;1999.90;999.90;;;11.90;99.90;;;;;;5054182;28;20454;-69
2022/04/28 07:23:57;;;;;;;1999.90;999.90;;;11.80;99.90;;;;;;5062420;28;20512;-71
2022/04/28 07:26:23;;;;;;;1999.90;999.90;;;12.20;99.90;;;;;;5068296;28;20471;-69
2022/04/28 07:28:50;;;;;;;1999.90;999.90;;;12.40;99.90;;;;;;5054487;28;20492;-70
2022/04/28 07:31:16;;;;;;;1999.90;999.90;;;12.30;99.90;;;;;;5054246;28;20469;-69
2022/04/28 07:33:43;;;;;;;1999.90;999.90;;;12.50;99.90;;;;;;5053731;28;21015;-71
2022/04/28 07:36:12;;;;;;;1999.90;999.90;;;12.70;99.90;;;;;;5054559;28;20465;-70
2022/04/28 07:38:39;;;;;;;1999.90;999.90;;;13.10;99.90;;;;;;5053487;28;20838;-70
2022/04/28 07:41:05;;;;;;;1999.90;999.90;;;13.10;99.90;;;;;;5053579;28;20458;-70
2022/04/28 07:43:32;;;;;;;1999.90;999.90;;;13.10;99.90;;;;;;5053168;28;20948;-71
2022/04/28 07:45:59;;;;;;;1999.90;999.90;;;13.40;99.90;;;;;;5053621;28;20466;-70
2022/04/28 07:48:25;;;;;;;1999.90;999.90;;;13.50;99.90;;;;;;5053576;28;20450;-70
2022/04/28 07:50:52;;;;;;;1999.90;999.90;;;14.00;99.90;;;;;;5053400;28;20496;-69
2022/04/28 07:53:20;;;;;;;1999.90;999.90;;;13.90;99.90;;;;;;5054186;28;20450;-72
2022/04/28 07:56:10;;;;;;;1999.90;999.90;;;13.50;99.90;;;;;;5054126;28;20462;-70
2022/04/28 07:58:34;;;;;;;1999.90;999.90;;;13.40;99.90;;;;;;5053933;28;20932;-70
2022/04/28 08:01:01;;;;;;;1999.90;999.90;;;13.30;99.90;;;;;;5062668;28;20523;-71
2022/04/28 08:03:28;;;;;;;1999.90;999.90;;;13.20;99.90;;;;;;5049652;28;20543;-70
2022/04/28 08:05:54;;;;;;;1999.90;999.90;;;13.30;99.90;;;;;;5058602;28;20486;-70
2022/04/28 08:08:22;;;;;;;1999.90;999.90;;;13.30;99.90;;;;;;5056544;28;20516;-70
2022/04/28 08:10:50;;;;;;;1999.90;999.90;;;13.50;99.90;;;;;;5067739;28;20462;-70
2022/04/28 08:13:17;;;;;;;1999.90;999.90;;;13.50;99.90;;;;;;5054596;28;20910;-70
2022/04/28 08:15:44;;;;;;;1999.90;999.90;;;13.50;99.90;;;;;;5057108;28;20895;-70
2022/04/28 08:18:10;;;;;;;1999.90;999.90;;;13.40;99.90;;;;;;5060994;28;21025;-70
2022/04/28 08:20:40;;;;;;;1999.90;999.90;;;13.60;99.90;;;;;;5055788;28;20462;-68
2022/04/28 08:23:07;;;;;;;1999.90;999.90;;;13.90;99.90;;;;;;5060976;28;20938;-70
2022/04/28 08:25:35;;;;;;;1999.90;999.90;;;13.90;99.90;;;;;;5060344;28;20575;-70
2022/04/28 08:28:02;;;;;;;1999.90;999.90;;;14.00;99.90;;;;;;5072396;28;20943;-70
2022/04/28 08:30:30;;;;;;;1999.90;999.90;;;14.00;99.90;;;;;;5064325;28;20466;-70
2022/04/28 08:32:57;;;;;;;1999.90;999.90;;;14.10;99.90;;;;;;5032614;28;20439;-70
2022/04/28 08:35:23;;;;;;;1999.90;999.90;;;14.20;99.90;;;;;;5032632;28;20505;-71
2022/04/28 08:37:50;;;;;;;1999.90;999.90;;;14.50;99.90;;;;;;5042965;28;20512;-70
2022/04/28 08:40:18;;;;;;;1999.90;999.90;;;14.40;99.90;;;;;;5063497;28;20880;-70
2022/04/28 08:42:49;;;;;;;1999.90;999.90;;;14.40;99.90;;;;;;5059450;28;20889;-70
2022/04/28 08:45:18;;;;;;;1999.90;999.90;;;14.30;99.90;;;;;;5060653;28;21061;-69
2022/04/28 08:47:47;;;;;;;1999.90;999.90;;;14.00;99.90;;;;;;5055233;28;20561;-70
2022/04/28 08:50:14;;;;;;;1999.90;999.90;;;13.90;99.90;;;;;;5052280;28;20524;-69
2022/04/28 08:52:41;;;;;;;1999.90;999.90;;;13.90;99.90;;;;;;5061686;28;20519;-70
2022/04/28 08:55:10;;;;;;;1999.90;999.90;;;13.80;99.90;;;;;;5062809;28;20922;-70
2022/04/28 08:57:36;;;;;;;1999.90;999.90;;;13.90;99.90;;;;;;5064505;28;20895;-70
2022/04/28 09:00:06;;;;;;;1999.90;999.90;;;13.90;99.90;;;;;;5066744;28;20466;-70
2022/04/28 09:02:33;;;;;;;1999.90;999.90;;;14.00;99.90;;;;;;5058912;28;20458;-67
2022/04/28 09:05:01;;;;;;;1999.90;999.90;;;14.00;99.90;;;;;;5051784;28;20893;-69
2022/04/28 09:07:36;;;;;;;1999.90;999.90;;;14.00;99.90;;;;;;5056812;28;20498;-70
2022/04/28 09:10:25;;;;;;;1999.90;999.90;;;13.90;99.90;;;;;;5063982;28;20469;-69
2022/04/28 09:14:08;;;;;;;1999.90;999.90;;;14.00;99.90;;;;;;5064327;28;20809;-70
2022/04/28 09:15:50;;;;;;;1999.90;999.90;;;14.20;99.90;;;;;;5047682;28;20476;-68
2022/04/28 09:18:17;;;;;;;1999.90;999.90;;;14.30;99.90;;;;;;5063811;28;20437;-70
2022/04/28 09:20:44;;;;;;;1999.90;999.90;;;14.20;99.90;;;;;;5062489;28;21031;-70
2022/04/28 09:23:12;;;;;;;1999.90;999.90;;;14.40;99.90;;;;;;5063134;28;20475;-69
2022/04/28 09:25:39;;;;;;;1999.90;999.90;;;14.50;99.90;;;;;;5064831;28;20497;-70
2022/04/28 09:28:08;;;;;;;1999.90;999.90;;;14.50;99.90;;;;;;5063539;28;20556;-70
2022/04/28 09:30:36;;;;;;;1999.90;999.90;;;14.80;99.90;;;;;;5064912;28;20461;-70
2022/04/28 09:33:12;;;;;;;1999.90;999.90;;;14.90;99.90;;;;;;5063308;28;20449;-70
2022/04/28 09:35:46;;;;;;;1999.90;999.90;;;15.20;99.90;;;;;;5058847;28;20942;-70
2022/04/28 09:38:13;;;;;;;1999.90;999.90;;;15.10;99.90;;;;;;5063935;28;20536;-70
2022/04/28 09:43:25;;;;;;;1999.90;999.90;;;14.90;99.90;;;;;;5063090;28;20432;-70
2022/04/28 09:45:53;;;;;;;1999.90;999.90;;;15.10;99.90;;;;;;5065655;28;20481;-70
2022/04/28 09:48:21;;;;;;;1999.90;999.90;;;15.20;99.90;;;;;;5055374;28;20466;-70
2022/04/28 09:50:49;;;;;;;1999.90;999.90;;;15.60;99.90;;;;;;5059911;28;20446;-70
2022/04/28 09:53:17;;;;;;;1999.90;999.90;;;15.80;99.90;;;;;;5052195;28;20470;-70
2022/04/28 09:55:45;;;;;;;1999.90;999.90;;;15.70;99.90;;;;;;5063617;28;20473;-70
2022/04/28 09:58:14;;;;;;;1999.90;999.90;;;15.40;99.90;;;;;;5065153;28;20462;-70
2022/04/28 10:00:41;;;;;;;1999.90;999.90;;;15.20;99.90;;;;;;5064033;28;20446;-71
2022/04/28 10:03:10;;;;;;;1999.90;999.90;;;15.40;99.90;;;;;;5068342;28;20459;-70
2022/04/28 10:05:39;;;;;;;1999.90;999.90;;;15.60;99.90;;;;;;5066860;28;20489;-70
2022/04/28 10:08:06;;;;;;;1999.90;999.90;;;15.70;99.90;;;;;;5069366;28;21208;-70
2022/04/28 10:10:35;;;;;;;1999.90;999.90;;;15.80;99.90;;;;;;5066833;28;20442;-70
2022/04/28 10:13:02;;;;;;;1999.90;999.90;;;15.90;99.90;;;;;;5069752;28;20462;-70
2022/04/28 10:15:32;;;;;;;1999.90;999.90;;;16.20;99.90;;;;;;5054969;28;20461;-70
2022/04/28 10:18:04;;;;;;;1999.90;999.90;;;16.40;99.90;;;;;;5054207;28;20555;-70
2022/04/28 10:20:35;;;;;;;1999.90;999.90;;;16.60;99.50;;;;;;5055514;28;20434;-70
2022/04/28 10:23:06;;;;;;;1999.90;999.90;;;16.30;99.30;;;;;;5061836;28;21171;-70
2022/04/28 10:34:10;;;;;;;1999.90;999.90;;;16.30;99.20;;;;;;5059336;28;20480;-70
2022/04/28 10:36:51;;;;;;;1999.90;999.90;;;16.20;99.20;;;;;;5054932;28;20521;-70
2022/04/28 10:39:38;;;;;;;1999.90;999.90;;;16.10;99.70;;;;;;5054896;28;20936;-70
2022/04/28 10:42:13;;;;;;;1999.90;999.90;;;16.20;99.50;;;;;;5054306;28;20450;-68
2022/04/28 10:44:42;;;;;;;1999.90;999.90;;;16.40;99.20;;;;;;5054383;28;20461;-71
2022/04/28 10:47:08;;;;;;;1999.90;999.90;;;16.40;98.50;;;;;;5054808;28;20458;-70
2022/04/28 10:49:39;;;;;;;1999.90;999.90;;;16.30;99.20;;;;;;5054211;28;20997;-70
2022/04/28 10:52:07;;;;;;;1999.90;999.90;;;16.60;98.70;;;;;;5054358;28;20496;-70
2022/04/28 10:54:44;;;;;;;1999.90;999.90;;;16.80;98.10;;;;;;5054482;28;20446;-70
2022/04/28 10:57:13;;;;;;;1999.90;999.90;;;16.60;98.10;;;;;;5054396;28;20442;-70
2022/04/28 10:59:41;;;;;;;1999.90;999.90;;;16.60;98.50;;;;;;5053822;28;20515;-70
2022/04/28 11:02:41;;;;;;;1999.90;999.90;;;16.60;98.20;;;;;;5054271;28;20454;-70
2022/04/28 11:05:43;;;;;;;1999.90;999.90;;;16.60;99.10;;;;;;5053876;28;20567;-70
2022/04/28 11:08:36;;;;;;;1999.90;999.90;;;16.90;97.80;;;;;;5056590;28;20442;-70
2022/04/28 11:11:13;;;;;;;1999.90;999.90;;;17.00;97.50;;;;;;5060628;28;20458;-69
2022/04/28 11:13:50;;;;;;;1999.90;999.90;;;16.70;98.40;;;;;;5038925;28;21004;-70
2022/04/28 11:16:18;;;;;;;1999.90;999.90;;;16.60;97.80;;;;;;5061237;28;20477;-70
2022/04/28 11:18:46;;;;;;;1999.90;999.90;;;16.40;98.50;;;;;;5059208;28;20458;-70
2022/04/28 11:21:13;;;;;;;1999.90;999.90;;;16.40;97.90;;;;;;5062739;28;21001;-70
2022/04/28 11:23:43;;;;;;;1999.90;999.90;;;16.40;98.10;;;;;;5069954;28;20515;-69
2022/04/28 11:26:11;;;;;;;1999.90;999.90;;;16.30;98.40;;;;;;5053547;28;20493;-70
2022/04/28 11:28:39;;;;;;;1999.90;999.90;;;16.30;98.50;;;;;;5060306;28;20450;-70
2022/04/28 11:31:12;;;;;;;1999.90;999.90;;;16.20;97.80;;;;;;5053989;28;20504;-70
2022/04/28 11:33:43;;;;;;;1999.90;999.90;;;16.50;98.80;;;;;;5053580;28;20457;-70
2022/04/28 11:36:18;;;;;;;1999.90;999.90;;;17.00;98.40;;;;;;5053938;28;20464;-70
2022/04/28 11:38:56;;;;;;;1999.90;999.90;;;17.60;97.50;;;;;;5053690;28;20461;-70
2022/04/28 11:41:32;;;;;;;1999.90;999.90;;;17.70;96.70;;;;;;5053743;28;20450;-70
2022/04/28 11:44:01;;;;;;;1999.90;999.90;;;17.60;96.40;;;;;;5053437;28;20831;-70
2022/04/28 11:46:27;;;;;;;1999.90;999.90;;;17.20;96.60;;;;;;5053255;28;20490;-70
2022/04/28 11:48:54;;;;;;;1999.90;999.90;;;17.20;97.50;;;;;;5053606;28;20544;-70
2022/04/28 11:51:25;;;;;;;1999.90;999.90;;;17.30;97.00;;;;;;5053061;28;20872;-70
2022/04/28 11:53:53;;;;;;;1999.90;999.90;;;17.20;97.10;;;;;;5053077;28;20851;-69
2022/04/28 11:56:21;;;;;;;1999.90;999.90;;;17.00;97.00;;;;;;5053405;28;20879;-70
2022/04/28 11:58:51;;;;;;;1999.90;999.90;;;17.00;97.40;;;;;;5052667;28;20545;-70
2022/04/28 12:01:20;;;;;;;1999.90;999.90;;;17.20;96.90;;;;;;5053054;28;21027;-70
2022/04/28 12:03:49;;;;;;;1999.90;999.90;;;17.20;96.90;;;;;;5052775;28;20442;-70
2022/04/28 12:06:17;;;;;;;1999.90;999.90;;;17.10;97.20;;;;;;5086003;22;21795;-71
2022/04/28 12:08:55;;;;;;;1999.90;999.90;;;17.00;97.30;;;;;;5079103;28;20526;-72
2022/04/28 12:14:25;;;;;;;1999.90;999.90;;;17.00;97.60;;;;;;5080344;28;20444;-73
2022/04/28 12:19:53;;;;;;;1999.90;999.90;;;17.00;97.30;;;;;;5069366;28;20590;-73
2022/04/28 12:22:30;;;;;;;1999.90;999.90;;;16.90;97.60;;;;;;5069321;28;20510;-74
2022/04/28 12:25:03;;;;;;;1999.90;999.90;;;16.70;98.10;;;;;;5068662;28;20472;-73
2022/04/28 12:27:38;;;;;;;1999.90;999.90;;;16.80;97.50;;;;;;5070188;28;20465;-72
2022/04/28 12:30:10;;;;;;;1999.90;999.90;;;17.00;97.50;;;;;;5067938;28;20963;-73
2022/04/28 12:32:43;;;;;;;1999.90;999.90;;;17.20;96.70;;;;;;5069969;28;20477;-74
2022/04/28 12:35:10;;;;;;;1999.90;999.90;;;17.20;97.30;;;;;;5069024;28;20943;-73
2022/04/28 12:37:39;;;;;;;1999.90;999.90;;;17.20;96.80;;;;;;5069244;28;20477;-73
2022/04/28 12:40:07;;;;;;;1999.90;999.90;;;17.40;97.10;;;;;;5067891;28;20548;-74
2022/04/28 12:42:45;;;;;;;1999.90;999.90;;;17.30;96.10;;;;;;5073005;28;20469;-70
2022/04/28 12:45:13;;;;;;;1999.90;999.90;;;17.20;96.60;;;;;;5070358;28;20510;-75